Time;durP1;ratioP1;P1;durP2;ratioP2;P2;SDS_P1;SDS_P2;PMS_P1;PMS_P2;Temp;Humidity;BMP_temperature;BMP_pressure;BME280_temperature;BME280_humidity;BME280_pressure;Samples;Min_cycle;Max_cycle;Signal;HPM_P1;HPM_P2
2021/09/01 00:00:08;;;;;;;15.40;5.50;;;;;;;13.28;100.00;101888.95;110912;1206;75480;-80
2021/09/01 00:02:35;;;;;;;11.40;4.90;;;;;;;13.28;100.00;101894.66;111288;1205;70348;-79
2021/09/01 00:05:02;;;;;;;7.60;4.30;;;;;;;13.27;100.00;101897.45;113394;1197;72295;-81
2021/09/01 00:07:29;;;;;;;17.00;5.60;;;;;;;13.26;100.00;101902.45;111001;1206;61891;-80
2021/09/01 00:09:56;;;;;;;9.50;4.10;;;;;;;13.26;100.00;101899.86;110714;1205;61446;-79
2021/09/01 00:12:23;;;;;;;14.00;4.80;;;;;;;13.25;100.00;101900.11;110832;1205;61576;-80
2021/09/01 00:14:49;;;;;;;29.50;5.90;;;;;;;13.24;100.00;101894.91;110901;1205;70943;-80
2021/09/01 00:17:16;;;;;;;11.70;4.80;;;;;;;13.23;100.00;101894.88;110939;1205;60989;-79
2021/09/01 00:19:43;;;;;;;21.30;5.50;;;;;;;13.21;100.00;101896.64;110903;1200;61013;-81
2021/09/01 00:22:09;;;;;;;12.70;4.00;;;;;;;13.20;100.00;101891.84;111000;1205;61581;-81
2021/09/01 00:24:36;;;;;;;11.20;4.70;;;;;;;13.17;100.00;101896.83;110989;1205;61198;-79
2021/09/01 00:27:02;;;;;;;10.40;4.40;;;;;;;13.15;100.00;101893.34;110842;1198;61097;-80
2021/09/01 00:29:29;;;;;;;16.20;5.40;;;;;;;13.13;100.00;101897.48;111001;1205;71676;-78
2021/09/01 00:31:56;;;;;;;10.40;3.40;;;;;;;13.10;100.00;101896.40;110889;1198;61166;-80
2021/09/01 00:34:22;;;;;;;13.20;4.00;;;;;;;13.07;100.00;101895.27;110729;1205;61096;-79
2021/09/01 00:36:49;;;;;;;15.30;4.60;;;;;;;13.04;100.00;101894.52;110625;1200;61060;-80
2021/09/01 00:39:15;;;;;;;15.60;5.40;;;;;;;13.01;100.00;101893.05;110990;1205;61553;-79
2021/09/01 00:41:41;;;;;;;12.30;3.80;;;;;;;12.98;100.00;101888.74;110925;1205;61078;-80
2021/09/01 00:44:20;;;;;;;14.90;3.80;;;;;;;12.94;100.00;101891.98;110785;1205;61478;-80
2021/09/01 00:46:48;;;;;;;15.70;3.90;;;;;;;12.92;100.00;101891.67;110739;1205;62315;-80
2021/09/01 00:49:15;;;;;;;12.90;4.60;;;;;;;12.90;100.00;101886.59;110644;1205;74539;-79
2021/09/01 00:51:43;;;;;;;15.60;4.60;;;;;;;12.88;100.00;101887.00;110709;1205;71112;-82
2021/09/01 00:54:17;;;;;;;8.50;4.30;;;;;;;12.85;100.00;101891.39;110691;1197;72496;-80
2021/09/01 00:56:45;;;;;;;13.70;4.30;;;;;;;12.82;100.00;101887.89;110865;1198;61954;-80
2021/09/01 00:59:15;;;;;;;13.90;5.40;;;;;;;12.79;100.00;101888.27;110698;1205;61127;-80
2021/09/01 01:01:46;;;;;;;10.70;4.20;;;;;;;12.77;100.00;101886.73;110830;1205;75682;-80
2021/09/01 01:04:13;;;;;;;15.80;4.80;;;;;;;12.75;100.00;101887.98;110926;1205;71114;-81
2021/09/01 01:06:40;;;;;;;9.60;4.30;;;;;;;12.73;100.00;101892.94;110933;1205;61101;-79
2021/09/01 01:09:07;;;;;;;13.40;4.60;;;;;;;12.72;100.00;101894.52;110822;1205;61092;-78
2021/09/01 01:11:34;;;;;;;12.40;5.00;;;;;;;12.71;100.00;101894.27;110652;1205;61227;-78
2021/09/01 01:14:00;;;;;;;17.20;6.10;;;;;;;12.72;100.00;101892.77;110669;1200;74670;-81
2021/09/01 01:16:27;;;;;;;16.70;6.00;;;;;;;12.73;100.00;101891.92;110898;1205;70994;-79
2021/09/01 01:18:54;;;;;;;15.40;5.50;;;;;;;12.74;100.00;101895.24;110924;1197;73547;-79
2021/09/01 01:21:28;;;;;;;16.40;6.50;;;;;;;12.74;100.00;101894.27;110907;1206;62734;-80
2021/09/01 01:23:57;;;;;;;14.80;6.20;;;;;;;12.75;100.00;101893.11;111034;1204;61010;-80
2021/09/01 01:26:25;;;;;;;14.90;5.60;;;;;;;12.77;100.00;101897.38;110909;1197;74848;-81
2021/09/01 01:28:55;;;;;;;14.90;5.60;;;;;;;12.79;100.00;101896.40;111538;1198;72237;-82
2021/09/01 01:31:22;;;;;;;20.20;5.70;;;;;;;12.82;100.00;101898.58;111066;1205;72734;-80
2021/09/01 01:33:50;;;;;;;19.30;5.40;;;;;;;12.87;100.00;101897.19;111058;1204;61939;-80
2021/09/01 01:36:16;;;;;;;18.30;5.80;;;;;;;12.92;100.00;101898.30;110977;1204;61047;-79
2021/09/01 01:38:43;;;;;;;16.80;4.80;;;;;;;12.96;100.00;101895.93;110780;1205;61204;-78
2021/09/01 01:41:10;;;;;;;14.10;5.40;;;;;;;12.99;100.00;101894.46;110820;1205;71023;-80
2021/09/01 01:43:37;;;;;;;13.70;5.90;;;;;;;13.02;99.99;101891.02;112672;1197;71573;-80
2021/09/01 01:46:05;;;;;;;13.40;5.60;;;;;;;13.04;100.00;101892.39;110881;1205;62229;-80
2021/09/01 01:48:33;;;;;;;15.10;5.50;;;;;;;13.04;99.98;101894.15;111084;1205;61095;-79
2021/09/01 01:51:01;;;;;;;25.50;6.50;;;;;;;13.03;99.83;101895.16;111071;1205;74537;-79
2021/09/01 01:53:29;;;;;;;11.50;4.90;;;;;;;13.02;99.98;101892.75;110923;1198;72179;-79
2021/09/01 01:55:56;;;;;;;17.20;6.60;;;;;;;13.02;99.99;101897.23;111053;1205;73510;-82
2021/09/01 01:58:23;;;;;;;14.50;4.90;;;;;;;13.02;100.00;101900.08;110856;1205;61802;-79
2021/09/01 02:00:50;;;;;;;17.90;6.20;;;;;;;13.03;100.00;101898.65;110763;1205;61743;-79
2021/09/01 02:03:18;;;;;;;12.20;5.10;;;;;;;13.03;100.00;101898.29;110876;1205;74314;-79
2021/09/01 02:05:45;;;;;;;12.20;4.40;;;;;;;13.04;99.96;101899.98;110822;1198;70973;-78
2021/09/01 02:08:11;;;;;;;14.20;5.30;;;;;;;13.05;100.00;101905.91;110869;1205;61078;-79
2021/09/01 02:10:38;;;;;;;17.80;5.10;;;;;;;13.08;100.00;101906.16;110786;1205;63024;-79
2021/09/01 02:13:05;;;;;;;19.70;6.40;;;;;;;13.12;99.96;101905.64;110963;1205;61141;-78
2021/09/01 02:15:31;;;;;;;10.80;5.00;;;;;;;13.16;99.94;101911.34;110854;1205;74561;-79
2021/09/01 02:17:58;;;;;;;14.10;4.40;;;;;;;13.21;99.75;101909.80;110747;1205;70976;-79
2021/09/01 02:20:24;;;;;;;12.40;4.20;;;;;;;13.25;99.68;101902.48;110868;1200;61062;-78
2021/09/01 02:22:51;;;;;;;16.50;5.80;;;;;;;13.28;99.68;101904.59;110857;1205;61134;-79
2021/09/01 02:25:17;;;;;;;16.70;5.50;;;;;;;13.32;99.12;101907.73;110780;1205;61054;-80
2021/09/01 02:27:44;;;;;;;22.60;6.20;;;;;;;13.37;98.84;101898.84;110694;1197;60974;-78
2021/09/01 02:30:12;;;;;;;13.10;3.60;;;;;;;13.41;98.74;101902.48;110619;1205;61062;-78
2021/09/01 02:32:39;;;;;;;9.10;4.20;;;;;;;13.45;98.17;101903.64;110800;1205;72468;-77
2021/09/01 02:35:06;;;;;;;13.80;5.30;;;;;;;13.50;98.12;101899.29;110646;1205;63067;-80
2021/09/01 02:37:33;;;;;;;20.60;5.20;;;;;;;13.55;97.79;101902.30;110742;1205;63100;-78
2021/09/01 02:39:59;;;;;;;16.60;4.80;;;;;;;13.59;97.50;101907.92;110806;1205;61115;-79
2021/09/01 02:42:26;;;;;;;15.00;4.40;;;;;;;13.62;97.00;101905.46;110793;1205;62430;-80
2021/09/01 02:44:52;;;;;;;12.20;5.00;;;;;;;13.65;96.75;101903.73;110802;1205;61064;-79
2021/09/01 02:47:19;;;;;;;14.90;4.50;;;;;;;13.69;96.49;101905.30;110594;1205;61076;-79
2021/09/01 02:49:45;;;;;;;12.70;5.50;;;;;;;13.71;96.36;101904.84;110621;1200;61166;-80
2021/09/01 02:52:12;;;;;;;8.60;3.00;;;;;;;13.72;96.03;101904.66;110971;1205;61104;-79
2021/09/01 02:54:38;;;;;;;14.00;5.10;;;;;;;13.75;95.86;101904.98;110912;1197;61757;-80
2021/09/01 02:57:05;;;;;;;13.50;3.80;;;;;;;13.77;95.48;101907.75;110711;1205;61104;-80
2021/09/01 02:59:31;;;;;;;10.00;2.90;;;;;;;13.79;95.35;101909.34;110816;1198;61076;-79
2021/09/01 03:01:58;;;;;;;12.00;3.50;;;;;;;13.80;95.21;101905.95;110792;1205;61082;-78
2021/09/01 03:04:25;;;;;;;10.40;3.60;;;;;;;13.82;94.98;101914.19;110625;1205;75525;-79
2021/09/01 03:06:51;;;;;;;9.90;3.40;;;;;;;13.82;94.72;101916.21;110803;1205;61263;-79
2021/09/01 03:09:18;;;;;;;13.90;4.20;;;;;;;13.83;94.75;101915.95;110807;1205;61817;-78
2021/09/01 03:11:44;;;;;;;11.20;2.90;;;;;;;13.82;94.61;101913.18;110722;1199;61141;-81
2021/09/01 03:14:11;;;;;;;12.70;2.70;;;;;;;13.83;94.42;101914.73;110776;1205;61243;-80
2021/09/01 03:16:38;;;;;;;11.70;4.10;;;;;;;13.84;94.37;101913.95;110796;1205;60996;-79
2021/09/01 03:19:04;;;;;;;14.20;3.70;;;;;;;13.83;94.37;101915.23;110854;1204;71407;-79
2021/09/01 03:21:31;;;;;;;11.40;2.80;;;;;;;13.84;94.34;101915.64;110815;1204;61102;-80
2021/09/01 03:23:57;;;;;;;11.00;2.80;;;;;;;13.84;94.20;101917.21;110801;1205;61120;-80
2021/09/01 03:26:26;;;;;;;13.30;3.30;;;;;;;13.84;93.91;101909.69;110925;1198;61110;-78
2021/09/01 03:28:53;;;;;;;12.40;3.40;;;;;;;13.83;93.88;101904.10;110786;1204;76548;-80
2021/09/01 03:31:19;;;;;;;12.30;2.80;;;;;;;13.83;93.91;101902.98;110818;1205;61047;-79
2021/09/01 03:33:46;;;;;;;7.80;2.50;;;;;;;13.84;93.82;101908.41;110872;1205;72583;-80
2021/09/01 03:36:12;;;;;;;12.80;3.40;;;;;;;13.83;93.73;101910.45;110829;1197;61545;-79
2021/09/01 03:38:39;;;;;;;10.70;3.20;;;;;;;13.82;93.83;101906.27;110820;1197;60978;-78
2021/09/01 03:41:05;;;;;;;15.60;5.00;;;;;;;13.82;93.86;101903.67;110809;1205;61576;-81
2021/09/01 03:43:32;;;;;;;17.80;4.00;;;;;;;13.82;94.07;101907.67;110843;1205;60999;-80
2021/09/01 03:46:00;;;;;;;10.60;3.10;;;;;;;13.84;93.82;101908.45;110876;1205;72422;-79
2021/09/01 03:48:26;;;;;;;9.90;2.60;;;;;;;13.85;93.72;101909.91;110776;1198;63136;-79
2021/09/01 03:50:53;;;;;;;11.70;4.20;;;;;;;13.85;93.66;101910.27;110673;1198;61141;-80
2021/09/01 03:53:20;;;;;;;9.20;2.80;;;;;;;13.86;93.46;101910.64;110798;1205;61817;-79
2021/09/01 03:55:47;;;;;;;10.70;2.90;;;;;;;13.87;93.54;101913.74;110742;1204;72145;-78
2021/09/01 03:58:14;;;;;;;15.00;3.50;;;;;;;13.88;93.47;101915.28;110738;1204;73827;-80
2021/09/01 04:00:41;;;;;;;13.80;2.80;;;;;;;13.89;93.55;101916.27;110851;1205;61944;-81
2021/09/01 04:03:09;;;;;;;13.90;3.40;;;;;;;13.89;93.40;101916.41;111120;1206;61060;-78
2021/09/01 04:05:36;;;;;;;10.40;2.90;;;;;;;13.90;93.32;101922.05;110762;1206;73436;-78
2021/09/01 04:08:02;;;;;;;8.10;3.00;;;;;;;13.88;93.22;101921.52;110799;1199;72408;-79
2021/09/01 04:10:29;;;;;;;14.50;3.80;;;;;;;13.88;92.95;101921.52;110858;1197;72596;-79
2021/09/01 04:12:56;;;;;;;8.70;3.00;;;;;;;13.89;93.07;101923.58;110696;1205;61099;-79
2021/09/01 04:15:22;;;;;;;8.10;3.50;;;;;;;13.90;92.93;101926.14;110801;1205;61091;-78
2021/09/01 04:17:49;;;;;;;9.50;2.80;;;;;;;13.89;92.77;101930.15;110707;1205;74470;-81
2021/09/01 04:20:16;;;;;;;20.00;3.20;;;;;;;13.88;92.63;101932.31;110876;1198;71002;-80
2021/09/01 04:22:42;;;;;;;12.20;2.70;;;;;;;13.87;92.62;101933.08;110898;1205;75456;-79
2021/09/01 04:25:12;;;;;;;8.10;2.40;;;;;;;13.88;92.68;101930.05;110841;1205;63305;-80
2021/09/01 04:27:38;;;;;;;14.20;5.20;;;;;;;13.87;92.67;101937.25;110816;1205;61013;-79
2021/09/01 04:30:06;;;;;;;9.70;4.10;;;;;;;13.86;92.42;101931.05;110935;1205;75734;-79
2021/09/01 04:32:32;;;;;;;11.60;4.20;;;;;;;13.87;92.40;101933.84;110734;1205;71148;-78
2021/09/01 04:34:59;;;;;;;9.30;3.40;;;;;;;13.88;92.54;101930.74;110803;1205;61435;-77
2021/09/01 04:37:26;;;;;;;12.90;4.10;;;;;;;13.89;92.48;101932.30;110659;1205;62661;-79
2021/09/01 04:39:53;;;;;;;14.30;3.50;;;;;;;13.90;92.39;101928.82;110998;1205;61147;-79
2021/09/01 04:42:19;;;;;;;9.40;3.80;;;;;;;13.91;92.44;101930.85;111788;1197;61052;-79
2021/09/01 04:44:45;;;;;;;9.60;3.00;;;;;;;13.90;92.40;101934.79;112220;1205;60975;-80
2021/09/01 04:47:12;;;;;;;10.90;3.40;;;;;;;13.90;92.49;101936.21;113377;1204;61073;-79
2021/09/01 04:49:39;;;;;;;9.70;3.10;;;;;;;13.91;92.41;101937.35;111969;1199;61150;-80
2021/09/01 04:52:05;;;;;;;21.60;5.30;;;;;;;13.92;92.26;101939.72;110862;1198;61071;-79
2021/09/01 04:54:32;;;;;;;12.80;4.20;;;;;;;13.95;92.22;101943.55;110679;1198;61204;-80
2021/09/01 04:56:58;;;;;;;8.90;4.40;;;;;;;13.96;92.35;101941.67;110936;1205;71123;-79
2021/09/01 04:59:25;;;;;;;9.50;3.50;;;;;;;13.98;92.03;101940.38;111100;1205;73574;-79
2021/09/01 05:01:52;;;;;;;10.50;4.20;;;;;;;13.97;92.01;101945.05;111734;1204;61065;-80
2021/09/01 05:04:19;;;;;;;12.20;5.40;;;;;;;13.98;91.95;101939.97;111380;1197;61191;-79
2021/09/01 05:06:45;;;;;;;17.40;4.60;;;;;;;14.00;92.10;101941.21;111553;1197;61068;-80
2021/09/01 05:09:12;;;;;;;21.20;5.30;;;;;;;14.01;91.92;101940.15;111727;1197;60948;-80
2021/09/01 05:11:38;;;;;;;14.70;5.20;;;;;;;14.03;91.88;101943.02;112374;1205;60987;-79
2021/09/01 05:14:05;;;;;;;17.00;5.70;;;;;;;14.05;91.80;101940.81;111893;1199;61007;-80
2021/09/01 05:16:31;;;;;;;12.80;4.50;;;;;;;14.07;91.92;101948.23;110766;1200;61066;-86
2021/09/01 05:18:58;;;;;;;21.70;5.80;;;;;;;14.10;91.88;101955.27;110828;1205;61086;-79
2021/09/01 05:21:26;;;;;;;15.90;6.20;;;;;;;14.13;91.89;101959.41;111083;1205;62296;-80
2021/09/01 05:23:56;;;;;;;22.70;5.60;;;;;;;14.17;91.90;101964.26;110952;1205;72460;-79
2021/09/01 05:26:30;;;;;;;18.10;5.90;;;;;;;14.21;91.49;101969.99;110936;1205;62553;-81
2021/09/01 05:29:00;;;;;;;14.20;4.70;;;;;;;14.26;91.34;101975.67;110957;1205;61439;-74
2021/09/01 05:31:31;;;;;;;11.80;4.70;;;;;;;14.30;90.90;101973.53;110740;1205;74468;-78
2021/09/01 05:34:02;;;;;;;15.00;5.20;;;;;;;14.32;90.79;101977.93;110900;1205;70747;-76
2021/09/01 05:36:30;;;;;;;12.30;4.90;;;;;;;14.33;90.66;101979.43;110834;1199;72609;-76
2021/09/01 05:38:59;;;;;;;21.90;4.80;;;;;;;14.34;90.48;101976.77;110796;1205;61104;-77
2021/09/01 05:41:29;;;;;;;22.90;6.90;;;;;;;14.38;90.06;101974.96;110909;1205;61151;-78
2021/09/01 05:43:58;;;;;;;18.30;5.60;;;;;;;14.40;89.80;101976.54;110699;1205;74682;-75
2021/09/01 05:46:24;;;;;;;13.30;4.20;;;;;;;14.40;89.68;101985.38;110841;1197;70965;-75
2021/09/01 05:48:55;;;;;;;14.90;6.10;;;;;;;14.41;89.60;101986.04;110729;1204;61094;-76
2021/09/01 05:51:22;;;;;;;14.10;4.80;;;;;;;14.42;89.43;101992.46;112610;1197;61711;-74
2021/09/01 05:53:49;;;;;;;10.70;3.80;;;;;;;14.42;89.38;101989.23;110775;1204;61423;-75
2021/09/01 05:56:21;;;;;;;13.20;5.20;;;;;;;14.43;89.61;101985.73;111465;1200;74881;-74
2021/09/01 05:58:53;;;;;;;12.10;3.80;;;;;;;14.48;89.89;101984.33;113208;1197;70981;-75
2021/09/01 06:01:26;;;;;;;9.00;2.80;;;;;;;14.53;89.61;101984.88;110682;1205;72592;-76
2021/09/01 06:03:58;;;;;;;10.90;4.20;;;;;;;14.54;89.14;101984.73;112771;1198;62087;-76
2021/09/01 06:06:27;;;;;;;9.90;3.40;;;;;;;14.55;88.88;101982.86;110785;1205;61061;-75
2021/09/01 06:08:59;;;;;;;14.80;3.70;;;;;;;14.54;88.70;101982.05;110755;1204;76029;-74
2021/09/01 06:11:27;;;;;;;11.40;4.40;;;;;;;14.54;88.73;101978.58;111066;1197;71915;-74
2021/09/01 06:13:54;;;;;;;9.60;4.20;;;;;;;14.54;88.88;101981.42;110739;1205;74530;-74
2021/09/01 06:16:20;;;;;;;10.10;5.20;;;;;;;14.55;88.86;101980.42;110639;1205;60987;-72
2021/09/01 06:18:47;;;;;;;9.00;3.00;;;;;;;14.56;88.72;101979.61;110783;1205;61043;-76
2021/09/01 06:21:17;;;;;;;13.00;4.00;;;;;;;14.57;88.80;101984.78;110849;1197;74364;-74
2021/09/01 06:23:44;;;;;;;11.50;4.30;;;;;;;14.60;88.63;101981.92;110762;1205;71948;-74
2021/09/01 06:26:11;;;;;;;9.10;4.00;;;;;;;14.66;88.47;101985.40;110765;1205;72997;-75
2021/09/01 06:28:42;;;;;;;10.60;3.70;;;;;;;14.70;88.23;101984.59;110885;1198;62533;-72
2021/09/01 06:31:08;;;;;;;14.20;5.10;;;;;;;14.77;88.14;101992.26;110724;1205;61007;-75
2021/09/01 06:33:35;;;;;;;14.10;3.90;;;;;;;14.82;88.09;101983.15;110810;1200;74596;-73
2021/09/01 06:36:03;;;;;;;10.80;3.40;;;;;;;14.84;87.63;101987.92;110779;1205;61565;-75
2021/09/01 06:38:29;;;;;;;12.50;4.60;;;;;;;14.86;87.33;101990.65;110861;1205;73755;-73
2021/09/01 06:40:56;;;;;;;18.30;4.50;;;;;;;14.88;87.38;101996.45;110865;1206;61121;-74
2021/09/01 06:43:22;;;;;;;11.00;3.40;;;;;;;14.90;87.13;101998.62;110910;1204;61160;-74
2021/09/01 06:45:49;;;;;;;13.30;3.90;;;;;;;14.92;86.94;102001.35;110991;1204;61197;-73
2021/09/01 06:48:16;;;;;;;13.50;3.80;;;;;;;14.94;86.91;102001.92;110877;1205;61061;-73
2021/09/01 06:50:42;;;;;;;13.60;4.00;;;;;;;14.94;86.80;102008.11;110942;1205;72507;-74
2021/09/01 06:53:11;;;;;;;15.80;7.10;;;;;;;14.95;86.86;102005.83;110944;1205;61898;-73
2021/09/01 06:55:38;;;;;;;13.90;4.00;;;;;;;14.99;87.18;102014.66;110953;1205;61576;-73
2021/09/01 06:58:16;;;;;;;59.30;24.00;;;;;;;15.03;87.04;102015.95;110831;1204;75862;-73
2021/09/01 07:00:43;;;;;;;16.50;4.20;;;;;;;15.13;87.30;102016.45;110865;1205;70708;-73
2021/09/01 07:03:10;;;;;;;10.80;3.10;;;;;;;15.23;86.83;102018.09;111297;1204;72508;-74
2021/09/01 07:05:37;;;;;;;10.60;3.80;;;;;;;15.32;86.65;102016.35;111047;1198;61899;-73
2021/09/01 07:08:13;;;;;;;16.00;4.80;;;;;;;15.39;85.64;102019.95;110887;1205;61601;-74
2021/09/01 07:10:41;;;;;;;12.20;3.60;;;;;;;15.44;84.88;102019.77;110958;1205;73546;-74
2021/09/01 07:13:07;;;;;;;12.00;4.20;;;;;;;15.45;84.83;102023.54;110850;1205;69834;-72
2021/09/01 07:15:34;;;;;;;19.50;5.50;;;;;;;15.51;84.64;102020.02;110813;1205;72447;-71
2021/09/01 07:18:01;;;;;;;12.10;4.00;;;;;;;15.56;83.88;102023.75;111692;1200;61712;-73
2021/09/01 07:20:28;;;;;;;12.30;3.60;;;;;;;15.59;83.87;102027.21;110888;1205;61064;-73
2021/09/01 07:22:54;;;;;;;10.40;3.20;;;;;;;15.63;83.77;102031.17;110778;1206;61090;-74
2021/09/01 07:25:22;;;;;;;18.70;4.30;;;;;;;15.64;83.56;102029.92;111076;1205;71816;-74
2021/09/01 07:27:48;;;;;;;15.40;4.80;;;;;;;15.68;83.74;102032.38;111006;1205;72513;-73
2021/09/01 07:30:15;;;;;;;12.00;4.20;;;;;;;15.76;83.33;102037.02;110823;1205;61124;-74
2021/09/01 07:32:44;;;;;;;10.50;3.40;;;;;;;15.80;82.47;102035.81;110836;1205;61178;-73
2021/09/01 07:35:11;;;;;;;10.60;3.10;;;;;;;15.87;82.49;102033.64;110942;1204;74812;-73
2021/09/01 07:37:49;;;;;;;16.20;4.20;;;;;;;15.93;81.95;102033.80;110911;1205;71361;-75
2021/09/01 07:40:18;;;;;;;19.20;4.20;;;;;;;16.03;81.74;102033.72;110885;1205;71567;-72
2021/09/01 07:42:46;;;;;;;16.30;6.00;;;;;;;16.11;80.96;102026.95;110900;1205;61388;-72
2021/09/01 07:45:14;;;;;;;14.00;4.30;;;;;;;16.19;80.72;102033.14;110866;1204;61069;-73
2021/09/01 07:47:51;;;;;;;10.80;4.40;;;;;;;16.24;79.92;102033.73;110907;1197;75534;-72
2021/09/01 07:50:20;;;;;;;11.90;3.80;;;;;;;16.32;79.89;102031.06;110875;1204;72197;-74
2021/09/01 07:52:47;;;;;;;7.80;2.60;;;;;;;16.43;80.01;102031.33;111003;1205;72481;-72
2021/09/01 07:55:14;;;;;;;9.60;3.70;;;;;;;16.52;78.71;102031.80;110879;1204;61558;-73
2021/09/01 07:57:40;;;;;;;12.40;5.50;;;;;;;16.55;77.21;102035.35;110868;1205;61112;-73
2021/09/01 08:00:09;;;;;;;11.80;4.60;;;;;;;16.58;76.75;102035.39;110860;1205;74459;-73
2021/09/01 08:02:36;;;;;;;11.60;4.40;;;;;;;16.61;77.27;102034.79;111052;1206;70640;-72
2021/09/01 08:05:05;;;;;;;11.30;4.80;;;;;;;16.68;77.01;102033.54;110892;1204;74568;-72
2021/09/01 08:07:32;;;;;;;12.20;5.90;;;;;;;16.75;76.41;102035.33;111091;1206;61276;-72
2021/09/01 08:09:59;;;;;;;10.00;4.40;;;;;;;16.78;75.45;102029.23;110881;1205;62232;-72
2021/09/01 08:12:25;;;;;;;12.30;5.40;;;;;;;16.80;75.31;102036.34;110868;1198;74683;-73
2021/09/01 08:14:53;;;;;;;13.40;5.00;;;;;;;16.85;75.26;102034.44;110862;1198;72079;-73
2021/09/01 08:17:19;;;;;;;11.90;4.30;;;;;;;16.86;75.33;102040.80;110925;1204;73531;-74
2021/09/01 08:19:46;;;;;;;9.50;3.60;;;;;;;16.91;75.70;102036.96;110870;1200;61079;-75
2021/09/01 08:22:13;;;;;;;9.20;4.70;;;;;;;17.01;75.86;102043.05;110944;1205;61554;-74
2021/09/01 08:24:40;;;;;;;12.10;4.30;;;;;;;17.09;75.60;102039.58;110928;1197;74596;-74
2021/09/01 08:27:11;;;;;;;11.10;4.60;;;;;;;17.17;74.39;102048.16;110825;1206;69924;-71
2021/09/01 08:29:39;;;;;;;11.20;4.30;;;;;;;17.13;73.59;102059.67;110984;1205;72480;-73
2021/09/01 08:32:07;;;;;;;14.50;6.90;;;;;;;17.03;73.70;102056.30;110796;1206;61188;-72
2021/09/01 08:34:33;;;;;;;14.20;5.30;;;;;;;17.05;74.29;102067.23;110995;1205;62180;-73
2021/09/01 08:37:02;;;;;;;10.30;5.50;;;;;;;17.12;73.73;102070.00;111293;1205;73343;-74
2021/09/01 08:39:29;;;;;;;10.80;4.70;;;;;;;17.14;73.08;102075.33;111006;1204;71963;-74
2021/09/01 08:41:56;;;;;;;12.00;5.30;;;;;;;17.20;73.19;102068.55;111133;1204;72504;-73
2021/09/01 08:44:22;;;;;;;14.30;5.90;;;;;;;17.30;73.57;102060.52;110891;1198;61089;-74
2021/09/01 08:46:50;;;;;;;10.80;4.50;;;;;;;17.45;73.17;102064.23;110903;1204;61065;-72
2021/09/01 08:49:19;;;;;;;12.00;4.00;;;;;;;17.52;72.83;102062.11;111021;1197;75719;-74
2021/09/01 08:51:50;;;;;;;11.70;5.20;;;;;;;17.66;72.65;102063.48;110884;1206;71978;-74
2021/09/01 08:54:16;;;;;;;17.00;5.50;;;;;;;17.81;72.11;102066.81;110849;1206;72556;-72
2021/09/01 08:56:43;;;;;;;12.60;5.70;;;;;;;17.91;70.25;102065.00;110782;1205;60959;-72
2021/09/01 08:59:10;;;;;;;14.90;6.60;;;;;;;17.99;70.19;102066.14;110892;1199;61069;-73
2021/09/01 09:01:45;;;;;;;15.40;6.30;;;;;;;18.15;71.35;102060.69;110695;1204;74910;-72
2021/09/01 09:04:30;;;;;;;13.80;5.40;;;;;;;18.25;70.10;102065.66;110778;1198;71237;-74
2021/09/01 09:07:01;;;;;;;10.70;5.00;;;;;;;18.31;69.70;102067.09;110757;1205;72568;-74
2021/09/01 09:09:30;;;;;;;13.60;6.60;;;;;;;18.37;68.99;102062.84;110779;1206;60991;-75
2021/09/01 09:11:59;;;;;;;10.40;5.90;;;;;;;18.44;69.24;102062.61;110961;1206;61116;-72
2021/09/01 09:14:27;;;;;;;12.10;5.70;;;;;;;18.54;68.42;102065.33;110827;1204;74495;-72
2021/09/01 09:17:04;;;;;;;12.30;5.50;;;;;;;18.48;67.27;102066.95;110773;1204;71659;-73
2021/09/01 09:19:51;;;;;;;10.30;4.00;;;;;;;18.46;67.59;102062.42;110797;1205;73332;-72
2021/09/01 09:22:25;;;;;;;11.70;4.70;;;;;;;18.62;68.72;102057.84;110673;1205;61013;-75
2021/09/01 09:25:06;;;;;;;18.20;9.90;;;;;;;18.86;67.86;102055.33;110660;1205;61111;-76
2021/09/01 09:27:41;;;;;;;38.00;17.30;;;;;;;19.08;66.60;102055.23;110632;1206;74365;-75
2021/09/01 09:30:23;;;;;;;9.70;5.20;;;;;;;19.36;66.58;102054.84;110739;1205;71120;-74
2021/09/01 09:33:05;;;;;;;10.70;4.30;;;;;;;19.47;65.45;102055.71;110760;1205;73498;-74
2021/09/01 09:35:57;;;;;;;13.30;5.40;;;;;;;19.42;64.70;102060.59;110731;1206;61601;-74
2021/09/01 09:38:43;;;;;;;17.70;8.20;;;;;;;19.44;65.28;102064.67;110992;1205;61212;-74
2021/09/01 09:41:24;;;;;;;13.20;5.40;;;;;;;19.44;65.19;102069.36;110794;1205;74606;-72
2021/09/01 09:44:04;;;;;;;10.30;4.60;;;;;;;19.42;64.75;102073.20;110633;1206;70991;-74
2021/09/01 09:46:44;;;;;;;11.00;5.30;;;;;;;19.38;64.73;102073.98;110719;1205;73533;-74
2021/09/01 09:49:11;;;;;;;12.00;4.70;;;;;;;19.32;65.15;102076.48;110721;1206;61559;-73
2021/09/01 09:51:41;;;;;;;46.20;22.70;;;;;;;19.32;65.80;102075.08;110745;1204;61047;-73
2021/09/01 09:54:21;;;;;;;15.60;5.50;;;;;;;19.39;65.50;102082.02;111177;1205;75718;-74
2021/09/01 09:56:48;;;;;;;18.00;7.10;;;;;;;19.37;64.37;102089.13;110855;1199;71259;-74
2021/09/01 09:59:16;;;;;;;13.00;6.30;;;;;;;19.35;64.65;102085.80;110777;1206;73554;-72
2021/09/01 10:01:44;;;;;;;11.20;5.70;;;;;;;19.37;65.32;102075.44;110652;1204;61294;-73
2021/09/01 10:04:12;;;;;;;10.30;4.80;;;;;;;19.39;65.52;102072.37;110905;1199;61633;-74
2021/09/01 10:06:41;;;;;;;10.50;5.40;;;;;;;19.33;64.48;102076.84;110772;1207;75749;-74
2021/09/01 10:09:08;;;;;;;11.40;5.20;;;;;;;19.31;64.39;102068.23;110709;1205;70977;-73
2021/09/01 10:11:39;;;;;;;9.40;5.60;;;;;;;19.33;64.77;102065.02;110896;1204;72617;-73
2021/09/01 10:14:08;;;;;;;10.00;5.50;;;;;;;19.44;64.65;102064.85;110766;1199;61108;-72
2021/09/01 10:16:41;;;;;;;9.10;5.00;;;;;;;19.55;63.78;102059.10;110772;1205;61122;-73
2021/09/01 10:19:14;;;;;;;12.30;5.40;;;;;;;19.51;63.74;102056.39;110879;1205;76120;-72
2021/09/01 10:21:51;;;;;;;11.70;4.70;;;;;;;19.47;63.96;102059.31;110730;1204;71837;-74
2021/09/01 10:24:41;;;;;;;11.30;5.80;;;;;;;19.32;63.75;102063.22;110860;1197;72596;-73
2021/09/01 10:27:28;;;;;;;11.00;5.70;;;;;;;19.35;64.16;102064.78;110714;1199;61866;-74
2021/09/01 10:30:06;;;;;;;11.00;5.80;;;;;;;19.51;64.43;102063.60;110726;1205;61078;-73
2021/09/01 10:32:44;;;;;;;37.40;20.10;;;;;;;19.57;63.63;102070.00;110730;1204;74252;-75
2021/09/01 10:35:19;;;;;;;11.10;6.50;;;;;;;19.63;63.33;102066.21;110721;1206;72054;-74
2021/09/01 10:37:54;;;;;;;9.00;4.70;;;;;;;19.64;62.85;102071.83;110995;1204;73718;-74
2021/09/01 10:40:20;;;;;;;;;;;;;;;19.53;62.83;102067.05;110709;1205;61428;-72
2021/09/01 10:42:51;;;;;;;12.60;6.20;;;;;;;19.52;63.35;102063.23;110687;1207;61087;-73
2021/09/01 10:45:20;;;;;;;11.90;5.30;;;;;;;19.44;63.17;102060.75;110690;1204;74655;-74
2021/09/01 10:47:50;;;;;;;13.50;5.60;;;;;;;19.44;63.96;102057.77;110775;1206;70963;-74
2021/09/01 10:50:28;;;;;;;12.10;6.00;;;;;;;19.34;64.04;102055.91;110683;1205;73808;-74
2021/09/01 10:52:56;;;;;;;11.20;6.20;;;;;;;19.22;64.03;102060.70;110649;1204;61098;-74
2021/09/01 10:55:24;;;;;;;14.10;5.70;;;;;;;19.19;63.89;102060.23;110677;1205;61080;-74
2021/09/01 10:58:22;;;;;;;11.50;6.80;;;;;;;19.36;63.79;102055.88;110781;1205;74575;-74
2021/09/01 11:00:57;;;;;;;13.80;6.90;;;;;;;19.44;63.09;102060.92;110827;1204;71224;-72
2021/09/01 11:03:33;;;;;;;14.60;5.60;;;;;;;19.59;63.48;102060.20;110833;1203;72539;-73
2021/09/01 11:06:14;;;;;;;11.90;5.10;;;;;;;19.72;62.56;102060.84;110801;1205;61021;-72
2021/09/01 11:09:06;;;;;;;17.60;8.90;;;;;;;19.76;62.21;102054.57;110776;1205;61464;-72
2021/09/01 11:11:54;;;;;;;10.50;5.40;;;;;;;19.87;62.14;102058.86;110742;1205;75558;-73
2021/09/01 11:14:35;;;;;;;10.50;5.90;;;;;;;19.94;61.33;102054.98;110815;1205;72471;-72
2021/09/01 11:17:09;;;;;;;12.20;6.00;;;;;;;19.84;61.32;102058.40;110796;1203;73574;-73